sensor_id;sensor_type;location;lat;lon;timestamp;pressure;altitude;pressure_sealevel;temperature;humidity
43707;BME280;61348;53.392;-6.248;2023-04-12T00:01:16;98275.75;;;3.46;86.18
43707;BME280;61348;53.392;-6.248;2023-04-12T00:03:43;98274.16;;;3.45;86.22
43707;BME280;61348;53.392;-6.248;2023-04-12T00:06:17;98272.91;;;3.42;86.07
43707;BME280;61348;53.392;-6.248;2023-04-12T00:08:53;98265.09;;;3.41;86.57
43707;BME280;61348;53.392;-6.248;2023-04-12T00:11:20;98258.44;;;3.42;86.81
43707;BME280;61348;53.392;-6.248;2023-04-12T00:13:47;98273.28;;;3.41;86.45
43707;BME280;61348;53.392;-6.248;2023-04-12T00:16:13;98276.03;;;3.41;86.57
43707;BME280;61348;53.392;-6.248;2023-04-12T00:18:42;98275.66;;;3.42;86.74
43707;BME280;61348;53.392;-6.248;2023-04-12T00:21:11;98260.75;;;3.40;86.72
43707;BME280;61348;53.392;-6.248;2023-04-12T00:23:39;98269.34;;;3.38;86.95
43707;BME280;61348;53.392;-6.248;2023-04-12T00:26:06;98261.47;;;3.37;86.66
43707;BME280;61348;53.392;-6.248;2023-04-12T00:28:34;98265.81;;;3.38;86.66
43707;BME280;61348;53.392;-6.248;2023-04-12T00:31:01;98260.31;;;3.38;86.79
43707;BME280;61348;53.392;-6.248;2023-04-12T00:33:28;98256.47;;;3.39;86.82
43707;BME280;61348;53.392;-6.248;2023-04-12T00:35:56;98258.41;;;3.38;86.87
43707;BME280;61348;53.392;-6.248;2023-04-12T00:38:23;98259.19;;;3.39;86.71
43707;BME280;61348;53.392;-6.248;2023-04-12T00:40:51;98263.06;;;3.38;86.68
43707;BME280;61348;53.392;-6.248;2023-04-12T00:43:18;98261.84;;;3.35;87.06
43707;BME280;61348;53.392;-6.248;2023-04-12T00:45:46;98253.97;;;3.34;87.03
43707;BME280;61348;53.392;-6.248;2023-04-12T00:48:13;98250.47;;;3.33;87.02
43707;BME280;61348;53.392;-6.248;2023-04-12T00:50:41;98252.84;;;3.35;86.51
43707;BME280;61348;53.392;-6.248;2023-04-12T00:53:12;98241.91;;;3.35;86.44
43707;BME280;61348;53.392;-6.248;2023-04-12T00:55:41;98245.00;;;3.33;86.63
43707;BME280;61348;53.392;-6.248;2023-04-12T00:58:09;98234.41;;;3.32;86.31
43707;BME280;61348;53.392;-6.248;2023-04-12T01:00:36;98241.03;;;3.31;86.57
43707;BME280;61348;53.392;-6.248;2023-04-12T01:03:05;98237.84;;;3.29;86.52
43707;BME280;61348;53.392;-6.248;2023-04-12T01:05:39;98229.22;;;3.27;86.09
43707;BME280;61348;53.392;-6.248;2023-04-12T01:08:30;98231.53;;;3.25;86.02
43707;BME280;61348;53.392;-6.248;2023-04-12T01:11:40;98225.97;;;3.21;85.95
43707;BME280;61348;53.392;-6.248;2023-04-12T01:14:14;98228.28;;;3.19;85.89
43707;BME280;61348;53.392;-6.248;2023-04-12T01:16:47;98218.84;;;3.17;86.20
43707;BME280;61348;53.392;-6.248;2023-04-12T01:22:28;98201.16;;;3.11;86.12
43707;BME280;61348;53.392;-6.248;2023-04-12T01:27:49;98194.97;;;3.14;85.93
43707;BME280;61348;53.392;-6.248;2023-04-12T01:30:19;98205.91;;;3.14;85.90
43707;BME280;61348;53.392;-6.248;2023-04-12T01:32:50;98200.84;;;3.16;85.58
43707;BME280;61348;53.392;-6.248;2023-04-12T01:35:20;98202.75;;;3.12;85.91
43707;BME280;61348;53.392;-6.248;2023-04-12T01:37:47;98194.53;;;3.12;85.39
43707;BME280;61348;53.392;-6.248;2023-04-12T01:40:15;98195.69;;;3.11;85.79
43707;BME280;61348;53.392;-6.248;2023-04-12T01:42:43;98201.84;;;3.07;85.52
43707;BME280;61348;53.392;-6.248;2023-04-12T01:45:11;98185.03;;;3.05;85.36
43707;BME280;61348;53.392;-6.248;2023-04-12T01:47:38;98182.28;;;3.05;85.52
43707;BME280;61348;53.392;-6.248;2023-04-12T01:53:00;98180.34;;;3.06;85.25
43707;BME280;61348;53.392;-6.248;2023-04-12T01:55:30;98169.00;;;3.04;85.54
43707;BME280;61348;53.392;-6.248;2023-04-12T01:58:01;98170.94;;;3.03;85.42
43707;BME280;61348;53.392;-6.248;2023-04-12T02:00:29;98172.44;;;3.01;85.29
43707;BME280;61348;53.392;-6.248;2023-04-12T02:02:58;98166.19;;;3.00;85.13
43707;BME280;61348;53.392;-6.248;2023-04-12T02:05:26;98159.91;;;3.00;84.75
43707;BME280;61348;53.392;-6.248;2023-04-12T02:07:55;98174.75;;;2.99;84.66
43707;BME280;61348;53.392;-6.248;2023-04-12T02:10:31;98159.50;;;2.98;84.90
43707;BME280;61348;53.392;-6.248;2023-04-12T02:13:02;98148.94;;;2.96;84.73
43707;BME280;61348;53.392;-6.248;2023-04-12T02:15:30;98141.06;;;2.95;84.88
43707;BME280;61348;53.392;-6.248;2023-04-12T02:17:59;98135.97;;;2.93;84.87
43707;BME280;61348;53.392;-6.248;2023-04-12T02:20:27;98127.78;;;2.93;84.80
43707;BME280;61348;53.392;-6.248;2023-04-12T02:22:54;98115.25;;;2.92;84.75
43707;BME280;61348;53.392;-6.248;2023-04-12T02:25:22;98116.41;;;2.91;85.08
43707;BME280;61348;53.392;-6.248;2023-04-12T02:27:49;98113.66;;;2.91;84.97
43707;BME280;61348;53.392;-6.248;2023-04-12T02:30:16;98103.47;;;2.88;85.22
43707;BME280;61348;53.392;-6.248;2023-04-12T02:32:45;98111.22;;;2.86;85.26
43707;BME280;61348;53.392;-6.248;2023-04-12T02:35:14;98097.13;;;2.84;85.04
43707;BME280;61348;53.392;-6.248;2023-04-12T02:37:45;98100.56;;;2.81;85.08
43707;BME280;61348;53.392;-6.248;2023-04-12T02:40:13;98097.03;;;2.81;85.07
43707;BME280;61348;53.392;-6.248;2023-04-12T02:42:43;98079.88;;;2.80;85.35
43707;BME280;61348;53.392;-6.248;2023-04-12T02:45:10;98071.69;;;2.80;85.08
43707;BME280;61348;53.392;-6.248;2023-04-12T02:47:38;98070.88;;;2.80;85.02
43707;BME280;61348;53.392;-6.248;2023-04-12T02:50:07;98060.31;;;2.78;85.25
43707;BME280;61348;53.392;-6.248;2023-04-12T02:52:34;98042.34;;;2.77;85.24
43707;BME280;61348;53.392;-6.248;2023-04-12T02:55:01;98053.63;;;2.76;85.55
43707;BME280;61348;53.392;-6.248;2023-04-12T02:57:28;98049.66;;;2.73;85.34
43707;BME280;61348;53.392;-6.248;2023-04-12T02:59:55;98035.16;;;2.69;85.32
43707;BME280;61348;53.392;-6.248;2023-04-12T03:02:22;98024.22;;;2.69;85.53
43707;BME280;61348;53.392;-6.248;2023-04-12T03:05:09;97998.44;;;2.67;85.59
43707;BME280;61348;53.392;-6.248;2023-04-12T03:07:36;98008.56;;;2.66;85.53
43707;BME280;61348;53.392;-6.248;2023-04-12T03:10:04;98000.75;;;2.65;85.79
43707;BME280;61348;53.392;-6.248;2023-04-12T03:12:34;97989.00;;;2.64;85.52
43707;BME280;61348;53.392;-6.248;2023-04-12T03:15:02;97987.44;;;2.63;85.50
43707;BME280;61348;53.392;-6.248;2023-04-12T03:17:29;97985.84;;;2.62;85.54
43707;BME280;61348;53.392;-6.248;2023-04-12T03:20:05;97995.19;;;2.61;85.80
43707;BME280;61348;53.392;-6.248;2023-04-12T03:22:36;98000.66;;;2.61;85.59
43707;BME280;61348;53.392;-6.248;2023-04-12T03:25:04;97990.53;;;2.62;85.81
43707;BME280;61348;53.392;-6.248;2023-04-12T03:27:31;97988.94;;;2.61;85.57
43707;BME280;61348;53.392;-6.248;2023-04-12T03:29:58;97972.19;;;2.62;85.51
43707;BME280;61348;53.392;-6.248;2023-04-12T03:32:26;97978.00;;;2.61;85.48
43707;BME280;61348;53.392;-6.248;2023-04-12T03:34:55;97967.09;;;2.61;85.77
43707;BME280;61348;53.392;-6.248;2023-04-12T03:37:23;97971.75;;;2.60;85.50
43707;BME280;61348;53.392;-6.248;2023-04-12T03:39:50;97966.28;;;2.60;85.58
43707;BME280;61348;53.392;-6.248;2023-04-12T03:42:17;97978.00;;;2.61;85.49
43707;BME280;61348;53.392;-6.248;2023-04-12T03:44:58;97972.91;;;2.59;85.88
43707;BME280;61348;53.392;-6.248;2023-04-12T03:47:26;97969.81;;;2.61;85.54
43707;BME280;61348;53.392;-6.248;2023-04-12T03:49:54;97960.03;;;2.60;85.72
43707;BME280;61348;53.392;-6.248;2023-04-12T03:52:37;97956.53;;;2.59;85.76
43707;BME280;61348;53.392;-6.248;2023-04-12T03:55:04;97948.75;;;2.61;85.80
43707;BME280;61348;53.392;-6.248;2023-04-12T03:57:33;97940.56;;;2.61;85.23
43707;BME280;61348;53.392;-6.248;2023-04-12T04:00:01;97931.97;;;2.59;85.75
43707;BME280;61348;53.392;-6.248;2023-04-12T04:02:28;97915.91;;;2.58;85.59
43707;BME280;61348;53.392;-6.248;2023-04-12T04:04:58;97916.28;;;2.56;85.45
43707;BME280;61348;53.392;-6.248;2023-04-12T04:07:25;97906.16;;;2.57;85.62
43707;BME280;61348;53.392;-6.248;2023-04-12T04:09:54;97906.16;;;2.57;85.49
43707;BME280;61348;53.392;-6.248;2023-04-12T04:12:21;97896.78;;;2.58;85.46
43707;BME280;61348;53.392;-6.248;2023-04-12T04:14:48;97901.13;;;2.59;85.72
43707;BME280;61348;53.392;-6.248;2023-04-12T04:17:15;97891.00;;;2.59;85.27
43707;BME280;61348;53.392;-6.248;2023-04-12T04:19:42;97883.56;;;2.60;85.21
43707;BME280;61348;53.392;-6.248;2023-04-12T04:22:09;97872.28;;;2.61;85.60
43707;BME280;61348;53.392;-6.248;2023-04-12T04:24:39;97855.53;;;2.63;85.31
43707;BME280;61348;53.392;-6.248;2023-04-12T04:27:06;97857.13;;;2.64;85.22
43707;BME280;61348;53.392;-6.248;2023-04-12T04:29:33;97843.09;;;2.65;85.46
43707;BME280;61348;53.392;-6.248;2023-04-12T04:32:00;97827.16;;;2.67;85.05
43707;BME280;61348;53.392;-6.248;2023-04-12T04:34:27;97818.16;;;2.67;85.28
43707;BME280;61348;53.392;-6.248;2023-04-12T04:36:54;97799.84;;;2.67;85.03
43707;BME280;61348;53.392;-6.248;2023-04-12T04:39:24;97803.28;;;2.64;84.93
43707;BME280;61348;53.392;-6.248;2023-04-12T04:41:52;97789.63;;;2.64;85.06
43707;BME280;61348;53.392;-6.248;2023-04-12T04:44:20;97785.72;;;2.65;84.75
43707;BME280;61348;53.392;-6.248;2023-04-12T04:46:48;97766.63;;;2.65;84.71
43707;BME280;61348;53.392;-6.248;2023-04-12T04:49:17;97764.69;;;2.66;84.59
43707;BME280;61348;53.392;-6.248;2023-04-12T04:51:44;97747.16;;;2.67;84.87
43707;BME280;61348;53.392;-6.248;2023-04-12T04:54:11;97746.41;;;2.70;84.62
43707;BME280;61348;53.392;-6.248;2023-04-12T04:56:39;97733.19;;;2.72;84.47
43707;BME280;61348;53.392;-6.248;2023-04-12T04:59:06;97725.06;;;2.75;84.67
43707;BME280;61348;53.392;-6.248;2023-04-12T05:01:36;97711.00;;;2.77;84.49
43707;BME280;61348;53.392;-6.248;2023-04-12T05:04:05;97705.16;;;2.78;84.44
43707;BME280;61348;53.392;-6.248;2023-04-12T05:06:35;97704.03;;;2.79;84.51
43707;BME280;61348;53.392;-6.248;2023-04-12T05:09:02;97700.50;;;2.79;84.29
43707;BME280;61348;53.392;-6.248;2023-04-12T05:11:33;97697.41;;;2.80;84.22
43707;BME280;61348;53.392;-6.248;2023-04-12T05:14:02;97678.72;;;2.82;84.24
43707;BME280;61348;53.392;-6.248;2023-04-12T05:16:32;97675.25;;;2.85;83.82
43707;BME280;61348;53.392;-6.248;2023-04-12T05:18:59;97671.78;;;2.88;83.81
43707;BME280;61348;53.392;-6.248;2023-04-12T05:21:26;97661.25;;;2.90;83.66
43707;BME280;61348;53.392;-6.248;2023-04-12T05:23:54;97660.53;;;2.93;83.60
43707;BME280;61348;53.392;-6.248;2023-04-12T05:26:22;97652.31;;;2.93;83.67
43707;BME280;61348;53.392;-6.248;2023-04-12T05:28:51;97642.94;;;2.94;83.49
43707;BME280;61348;53.392;-6.248;2023-04-12T05:31:19;97647.63;;;2.94;83.50
43707;BME280;61348;53.392;-6.248;2023-04-12T05:33:46;97652.72;;;2.95;83.46
43707;BME280;61348;53.392;-6.248;2023-04-12T05:36:15;97648.47;;;2.98;83.37
43707;BME280;61348;53.392;-6.248;2023-04-12T05:38:43;97621.16;;;2.98;83.09
43707;BME280;61348;53.392;-6.248;2023-04-12T05:41:11;97626.66;;;3.01;83.45
43707;BME280;61348;53.392;-6.248;2023-04-12T05:43:38;97630.59;;;3.04;82.92
43707;BME280;61348;53.392;-6.248;2023-04-12T05:46:05;97604.84;;;3.05;83.07
43707;BME280;61348;53.392;-6.248;2023-04-12T05:48:35;97604.50;;;3.10;82.74
43707;BME280;61348;53.392;-6.248;2023-04-12T05:51:02;97604.97;;;3.16;82.86
43707;BME280;61348;53.392;-6.248;2023-04-12T05:53:30;97597.22;;;3.21;82.91
43707;BME280;61348;53.392;-6.248;2023-04-12T05:55:58;97574.66;;;3.28;82.69
43707;BME280;61348;53.392;-6.248;2023-04-12T05:58:25;97566.13;;;3.33;82.64
43707;BME280;61348;53.392;-6.248;2023-04-12T06:00:52;97542.31;;;3.37;82.64
43707;BME280;61348;53.392;-6.248;2023-04-12T06:03:21;97540.41;;;3.41;82.38
43707;BME280;61348;53.392;-6.248;2023-04-12T06:05:51;97520.94;;;3.46;82.11
43707;BME280;61348;53.392;-6.248;2023-04-12T06:08:20;97507.69;;;3.51;82.15
43707;BME280;61348;53.392;-6.248;2023-04-12T06:10:47;97492.88;;;3.56;82.39
43707;BME280;61348;53.392;-6.248;2023-04-12T06:13:15;97477.31;;;3.60;81.81
43707;BME280;61348;53.392;-6.248;2023-04-12T06:15:42;97475.75;;;3.62;81.86
43707;BME280;61348;53.392;-6.248;2023-04-12T06:18:09;97459.75;;;3.64;81.89
43707;BME280;61348;53.392;-6.248;2023-04-12T06:20:39;97444.50;;;3.63;81.58
43707;BME280;61348;53.392;-6.248;2023-04-12T06:23:06;97430.44;;;3.65;81.48
43707;BME280;61348;53.392;-6.248;2023-04-12T06:25:33;97432.00;;;3.66;81.60
43707;BME280;61348;53.392;-6.248;2023-04-12T06:28:01;97425.38;;;3.67;81.32
43707;BME280;61348;53.392;-6.248;2023-04-12T06:30:28;97429.66;;;3.68;81.25
43707;BME280;61348;53.392;-6.248;2023-04-12T06:32:55;97424.19;;;3.68;81.56
43707;BME280;61348;53.392;-6.248;2023-04-12T06:35:22;97408.56;;;3.68;81.47
43707;BME280;61348;53.392;-6.248;2023-04-12T06:37:49;97387.47;;;3.69;81.37
43707;BME280;61348;53.392;-6.248;2023-04-12T06:40:16;97398.41;;;3.69;81.59
43707;BME280;61348;53.392;-6.248;2023-04-12T06:42:43;97395.31;;;3.71;81.40
43707;BME280;61348;53.392;-6.248;2023-04-12T06:45:10;97384.38;;;3.71;81.63
43707;BME280;61348;53.392;-6.248;2023-04-12T06:47:38;97386.31;;;3.70;81.76
43707;BME280;61348;53.392;-6.248;2023-04-12T06:50:05;97382.00;;;3.69;82.22
43707;BME280;61348;53.392;-6.248;2023-04-12T06:52:32;97385.91;;;3.68;82.21
43707;BME280;61348;53.392;-6.248;2023-04-12T06:54:59;97366.00;;;3.67;82.33
43707;BME280;61348;53.392;-6.248;2023-04-12T06:57:26;97364.00;;;3.68;82.55
43707;BME280;61348;53.392;-6.248;2023-04-12T06:59:53;97356.22;;;3.70;82.83
43707;BME280;61348;53.392;-6.248;2023-04-12T07:02:21;97335.50;;;3.69;82.80
43707;BME280;61348;53.392;-6.248;2023-04-12T07:04:54;97325.72;;;3.68;83.29
43707;BME280;61348;53.392;-6.248;2023-04-12T07:07:21;97320.25;;;3.68;83.54
43707;BME280;61348;53.392;-6.248;2023-04-12T07:09:48;97307.00;;;3.70;83.72
43707;BME280;61348;53.392;-6.248;2023-04-12T07:12:21;97305.81;;;3.71;83.77
43707;BME280;61348;53.392;-6.248;2023-04-12T07:14:48;97287.84;;;3.70;84.14
43707;BME280;61348;53.392;-6.248;2023-04-12T07:17:17;97281.94;;;3.68;84.17
43707;BME280;61348;53.392;-6.248;2023-04-12T07:19:47;97282.38;;;3.70;84.56
43707;BME280;61348;53.392;-6.248;2023-04-12T07:22:15;97273.41;;;3.73;84.34
43707;BME280;61348;53.392;-6.248;2023-04-12T07:24:42;97265.59;;;3.75;84.61
43707;BME280;61348;53.392;-6.248;2023-04-12T07:27:10;97250.34;;;3.74;85.06
43707;BME280;61348;53.392;-6.248;2023-04-12T07:29:37;97248.41;;;3.78;85.21
43707;BME280;61348;53.392;-6.248;2023-04-12T07:32:04;97245.28;;;3.83;85.08
43707;BME280;61348;53.392;-6.248;2023-04-12T07:34:32;97233.59;;;3.86;85.00
43707;BME280;61348;53.392;-6.248;2023-04-12T07:36:59;97232.81;;;3.93;85.57
43707;BME280;61348;53.392;-6.248;2023-04-12T07:39:28;97228.91;;;4.01;85.60
43707;BME280;61348;53.392;-6.248;2023-04-12T07:41:56;97224.25;;;4.12;85.68
43707;BME280;61348;53.392;-6.248;2023-04-12T07:44:23;97228.19;;;4.21;85.25
43707;BME280;61348;53.392;-6.248;2023-04-12T07:46:50;97231.34;;;4.30;85.72
43707;BME280;61348;53.392;-6.248;2023-04-12T07:49:17;97224.31;;;4.37;85.77
43707;BME280;61348;53.392;-6.248;2023-04-12T07:51:45;97218.81;;;4.44;85.89
43707;BME280;61348;53.392;-6.248;2023-04-12T07:54:13;97223.13;;;4.48;85.90
43707;BME280;61348;53.392;-6.248;2023-04-12T07:56:40;97218.03;;;4.54;86.25
43707;BME280;61348;53.392;-6.248;2023-04-12T07:59:08;97213.72;;;4.56;86.40
43707;BME280;61348;53.392;-6.248;2023-04-12T08:01:35;97206.31;;;4.57;86.84
43707;BME280;61348;53.392;-6.248;2023-04-12T08:04:06;97214.91;;;4.62;86.68
43707;BME280;61348;53.392;-6.248;2023-04-12T08:06:33;97196.91;;;4.68;87.04
43707;BME280;61348;53.392;-6.248;2023-04-12T08:09:00;97195.34;;;4.71;86.88
43707;BME280;61348;53.392;-6.248;2023-04-12T08:11:27;97197.69;;;4.76;87.18
43707;BME280;61348;53.392;-6.248;2023-04-12T08:13:54;97198.47;;;4.87;87.50
43707;BME280;61348;53.392;-6.248;2023-04-12T08:16:22;97192.97;;;4.94;87.38
43707;BME280;61348;53.392;-6.248;2023-04-12T08:18:49;97191.78;;;4.99;87.73
43707;BME280;61348;53.392;-6.248;2023-04-12T08:21:16;97200.00;;;5.02;87.73
43707;BME280;61348;53.392;-6.248;2023-04-12T08:23:45;97201.16;;;5.08;87.64
43707;BME280;61348;53.392;-6.248;2023-04-12T08:26:11;97199.16;;;5.19;87.90
43707;BME280;61348;53.392;-6.248;2023-04-12T08:28:38;97196.38;;;5.33;88.09
43707;BME280;61348;53.392;-6.248;2023-04-12T08:31:06;97190.06;;;5.50;87.91
43707;BME280;61348;53.392;-6.248;2023-04-12T08:33:34;97194.34;;;5.59;88.13
43707;BME280;61348;53.392;-6.248;2023-04-12T08:36:01;97208.41;;;5.68;88.15
43707;BME280;61348;53.392;-6.248;2023-04-12T08:38:28;97206.41;;;5.79;88.63
43707;BME280;61348;53.392;-6.248;2023-04-12T08:41:10;97209.13;;;5.86;88.62
43707;BME280;61348;53.392;-6.248;2023-04-12T08:43:42;97216.16;;;5.94;88.72
43707;BME280;61348;53.392;-6.248;2023-04-12T08:46:12;97216.56;;;5.89;88.66
43707;BME280;61348;53.392;-6.248;2023-04-12T08:48:46;97212.66;;;5.90;88.88
43707;BME280;61348;53.392;-6.248;2023-04-12T08:51:18;97223.63;;;5.90;88.96
43707;BME280;61348;53.392;-6.248;2023-04-12T08:53:46;97221.66;;;5.94;88.56
43707;BME280;61348;53.392;-6.248;2023-04-12T08:56:16;97223.16;;;6.02;88.75
43707;BME280;61348;53.392;-6.248;2023-04-12T08:58:46;97232.19;;;6.06;88.76
43707;BME280;61348;53.392;-6.248;2023-04-12T09:01:18;97238.50;;;6.58;88.74
43707;BME280;61348;53.392;-6.248;2023-04-12T09:03:46;97237.28;;;6.62;87.63
43707;BME280;61348;53.392;-6.248;2023-04-12T09:06:13;97247.84;;;6.67;88.21
43707;BME280;61348;53.392;-6.248;2023-04-12T09:08:54;97244.66;;;6.72;87.57
43707;BME280;61348;53.392;-6.248;2023-04-12T09:11:28;97245.88;;;6.75;87.75
43707;BME280;61348;53.392;-6.248;2023-04-12T09:13:56;97257.25;;;6.73;87.53
43707;BME280;61348;53.392;-6.248;2023-04-12T09:16:40;97254.94;;;6.68;87.46
43707;BME280;61348;53.392;-6.248;2023-04-12T09:19:08;97250.22;;;6.69;87.44
43707;BME280;61348;53.392;-6.248;2023-04-12T09:21:35;97258.53;;;6.58;87.14
43707;BME280;61348;53.392;-6.248;2023-04-12T09:24:03;97257.03;;;6.47;87.14
43707;BME280;61348;53.392;-6.248;2023-04-12T09:26:31;97254.56;;;6.66;87.30
43707;BME280;61348;53.392;-6.248;2023-04-12T09:28:59;97253.84;;;7.07;87.04
43707;BME280;61348;53.392;-6.248;2023-04-12T09:31:26;97267.06;;;7.22;86.00
43707;BME280;61348;53.392;-6.248;2023-04-12T09:34:05;97264.31;;;7.19;85.83
43707;BME280;61348;53.392;-6.248;2023-04-12T09:36:38;97259.88;;;7.32;85.41
43707;BME280;61348;53.392;-6.248;2023-04-12T09:39:06;97277.97;;;7.29;85.20
43707;BME280;61348;53.392;-6.248;2023-04-12T09:41:33;97272.25;;;7.54;85.38
43707;BME280;61348;53.392;-6.248;2023-04-12T09:44:04;97276.78;;;7.68;84.41
43707;BME280;61348;53.392;-6.248;2023-04-12T09:46:34;97293.41;;;7.57;84.32
43707;BME280;61348;53.392;-6.248;2023-04-12T09:49:01;97289.50;;;7.58;84.21
43707;BME280;61348;53.392;-6.248;2023-04-12T09:51:32;97300.63;;;7.44;83.95
43707;BME280;61348;53.392;-6.248;2023-04-12T09:54:02;97296.91;;;7.20;83.62
43707;BME280;61348;53.392;-6.248;2023-04-12T09:56:31;97304.03;;;7.18;84.11
43707;BME280;61348;53.392;-6.248;2023-04-12T09:59:05;97310.22;;;7.25;83.89
43707;BME280;61348;53.392;-6.248;2023-04-12T10:01:38;97310.81;;;7.47;83.32
43707;BME280;61348;53.392;-6.248;2023-04-12T10:04:08;97311.53;;;7.55;82.99
43707;BME280;61348;53.392;-6.248;2023-04-12T10:06:36;97316.28;;;7.54;81.91
43707;BME280;61348;53.392;-6.248;2023-04-12T10:09:03;97305.56;;;7.63;82.16
43707;BME280;61348;53.392;-6.248;2023-04-12T10:11:31;97322.06;;;7.63;81.82
43707;BME280;61348;53.392;-6.248;2023-04-12T10:14:02;97317.78;;;7.62;81.59
43707;BME280;61348;53.392;-6.248;2023-04-12T10:16:33;97315.50;;;7.54;81.79
43707;BME280;61348;53.392;-6.248;2023-04-12T10:19:02;97322.16;;;7.93;81.01
43707;BME280;61348;53.392;-6.248;2023-04-12T10:21:29;97326.13;;;7.89;80.16
43707;BME280;61348;53.392;-6.248;2023-04-12T10:23:57;97322.38;;;7.72;80.22
43707;BME280;61348;53.392;-6.248;2023-04-12T10:26:26;97325.63;;;7.60;80.24
43707;BME280;61348;53.392;-6.248;2023-04-12T10:31:53;97342.63;;;7.92;79.59
43707;BME280;61348;53.392;-6.248;2023-04-12T10:34:30;97343.84;;;7.88;79.07
43707;BME280;61348;53.392;-6.248;2023-04-12T10:36:58;97343.59;;;7.75;78.97
43707;BME280;61348;53.392;-6.248;2023-04-12T10:39:43;97345.09;;;8.17;79.10
43707;BME280;61348;53.392;-6.248;2023-04-12T10:42:28;97371.66;;;8.68;77.20
43707;BME280;61348;53.392;-6.248;2023-04-12T10:50:20;97387.06;;;8.92;75.40
43707;BME280;61348;53.392;-6.248;2023-04-12T10:55:39;97391.03;;;8.31;76.32
43707;BME280;61348;53.392;-6.248;2023-04-12T10:58:07;97400.78;;;7.98;76.29
43707;BME280;61348;53.392;-6.248;2023-04-12T11:03:26;97399.91;;;7.67;76.56
43707;BME280;61348;53.392;-6.248;2023-04-12T11:06:03;97416.75;;;7.76;76.41
43707;BME280;61348;53.392;-6.248;2023-04-12T11:08:53;97411.09;;;7.90;76.02
43707;BME280;61348;53.392;-6.248;2023-04-12T11:11:24;97418.78;;;8.10;75.65
43707;BME280;61348;53.392;-6.248;2023-04-12T11:13:54;97425.41;;;8.16;75.25
43707;BME280;61348;53.392;-6.248;2023-04-12T11:16:22;97441.56;;;8.14;75.17
43707;BME280;61348;53.392;-6.248;2023-04-12T11:18:49;97451.78;;;8.13;75.23
43707;BME280;61348;53.392;-6.248;2023-04-12T11:21:17;97447.06;;;8.14;74.89
43707;BME280;61348;53.392;-6.248;2023-04-12T11:23:45;97462.09;;;8.06;74.72
43707;BME280;61348;53.392;-6.248;2023-04-12T11:26:19;97455.00;;;8.08;74.80
43707;BME280;61348;53.392;-6.248;2023-04-12T11:28:47;97468.63;;;8.26;74.49
43707;BME280;61348;53.392;-6.248;2023-04-12T11:31:19;97463.56;;;8.58;73.89
43707;BME280;61348;53.392;-6.248;2023-04-12T11:33:47;97467.34;;;8.71;73.32
43707;BME280;61348;53.392;-6.248;2023-04-12T11:36:14;97466.25;;;8.65;73.20
43707;BME280;61348;53.392;-6.248;2023-04-12T11:38:42;97474.25;;;8.52;73.23
43707;BME280;61348;53.392;-6.248;2023-04-12T11:41:13;97465.72;;;8.40;73.19
43707;BME280;61348;53.392;-6.248;2023-04-12T11:43:40;97482.25;;;8.40;73.12
43707;BME280;61348;53.392;-6.248;2023-04-12T11:46:08;97481.91;;;8.38;72.99
43707;BME280;61348;53.392;-6.248;2023-04-12T11:48:36;97484.75;;;8.27;72.93
43707;BME280;61348;53.392;-6.248;2023-04-12T11:51:22;97491.00;;;8.31;72.81
43707;BME280;61348;53.392;-6.248;2023-04-12T11:53:58;97506.00;;;8.30;72.71
43707;BME280;61348;53.392;-6.248;2023-04-12T11:56:27;97493.41;;;8.26;72.50
43707;BME280;61348;53.392;-6.248;2023-04-12T11:58:55;97505.28;;;8.19;72.42
43707;BME280;61348;53.392;-6.248;2023-04-12T12:01:23;97505.66;;;8.21;72.54
43707;BME280;61348;53.392;-6.248;2023-04-12T12:03:51;97513.91;;;8.28;72.46
43707;BME280;61348;53.392;-6.248;2023-04-12T12:06:19;97518.53;;;8.38;72.53
43707;BME280;61348;53.392;-6.248;2023-04-12T12:08:49;97524.41;;;8.40;72.04
43707;BME280;61348;53.392;-6.248;2023-04-12T12:11:22;97520.81;;;8.47;72.07
43707;BME280;61348;53.392;-6.248;2023-04-12T12:13:53;97516.34;;;8.60;72.00
43707;BME280;61348;53.392;-6.248;2023-04-12T12:16:25;97532.69;;;8.78;72.01
43707;BME280;61348;53.392;-6.248;2023-04-12T12:18:54;97530.25;;;8.83;71.93
43707;BME280;61348;53.392;-6.248;2023-04-12T12:21:22;97535.56;;;8.67;71.40
43707;BME280;61348;53.392;-6.248;2023-04-12T12:23:50;97527.38;;;8.60;71.59
43707;BME280;61348;53.392;-6.248;2023-04-12T12:26:21;97523.50;;;8.50;71.57
43707;BME280;61348;53.392;-6.248;2023-04-12T12:28:56;97533.38;;;8.48;71.54
43707;BME280;61348;53.392;-6.248;2023-04-12T12:31:31;97527.50;;;8.46;71.61
43707;BME280;61348;53.392;-6.248;2023-04-12T12:34:01;97538.16;;;8.44;71.55
43707;BME280;61348;53.392;-6.248;2023-04-12T12:36:34;97538.22;;;8.37;71.72
43707;BME280;61348;53.392;-6.248;2023-04-12T12:39:06;97540.97;;;8.37;71.77
43707;BME280;61348;53.392;-6.248;2023-04-12T12:41:37;97534.38;;;8.27;71.73
43707;BME280;61348;53.392;-6.248;2023-04-12T12:44:04;97540.28;;;8.26;71.93
43707;BME280;61348;53.392;-6.248;2023-04-12T12:46:33;97539.94;;;8.20;72.08
43707;BME280;61348;53.392;-6.248;2023-04-12T12:49:20;97543.53;;;8.10;71.57
43707;BME280;61348;53.392;-6.248;2023-04-12T12:51:49;97552.97;;;8.13;71.32
43707;BME280;61348;53.392;-6.248;2023-04-12T12:54:16;97554.09;;;8.19;71.55
43707;BME280;61348;53.392;-6.248;2023-04-12T12:57:05;97562.28;;;8.33;71.44
43707;BME280;61348;53.392;-6.248;2023-04-12T12:59:36;97571.25;;;8.44;71.51
43707;BME280;61348;53.392;-6.248;2023-04-12T13:02:04;97569.53;;;8.57;71.36
43707;BME280;61348;53.392;-6.248;2023-04-12T13:04:33;97581.31;;;8.61;71.16
43707;BME280;61348;53.392;-6.248;2023-04-12T13:07:00;97589.88;;;8.70;71.20
43707;BME280;61348;53.392;-6.248;2023-04-12T13:09:27;97589.47;;;8.72;71.46
43707;BME280;61348;53.392;-6.248;2023-04-12T13:11:54;97600.25;;;8.55;71.76
43707;BME280;61348;53.392;-6.248;2023-04-12T13:14:22;97609.03;;;8.43;72.07
43707;BME280;61348;53.392;-6.248;2023-04-12T13:16:50;97610.75;;;8.27;72.39
43707;BME280;61348;53.392;-6.248;2023-04-12T13:19:17;97603.31;;;8.17;73.03
43707;BME280;61348;53.392;-6.248;2023-04-12T13:21:46;97616.34;;;8.13;73.08
43707;BME280;61348;53.392;-6.248;2023-04-12T13:24:13;97610.91;;;8.02;73.68
43707;BME280;61348;53.392;-6.248;2023-04-12T13:26:40;97612.16;;;7.90;74.08
43707;BME280;61348;53.392;-6.248;2023-04-12T13:29:07;97624.47;;;7.72;74.45
43707;BME280;61348;53.392;-6.248;2023-04-12T13:31:35;97624.97;;;7.53;74.75
43707;BME280;61348;53.392;-6.248;2023-04-12T13:34:03;97618.75;;;7.38;75.13